sensor_id;sensor_type;location;lat;lon;timestamp;pressure;altitude;pressure_sealevel;temperature;humidity
38718;BME280;24468;52.128;9.278;2023-02-21T00:00:16;100793.00;;;9.43;100.00
38718;BME280;24468;52.128;9.278;2023-02-21T00:03:00;100796.25;;;9.28;100.00
38718;BME280;24468;52.128;9.278;2023-02-21T00:05:44;100804.94;;;9.36;100.00
38718;BME280;24468;52.128;9.278;2023-02-21T00:08:28;100797.63;;;9.40;100.00
38718;BME280;24468;52.128;9.278;2023-02-21T00:11:12;100804.44;;;9.25;100.00
38718;BME280;24468;52.128;9.278;2023-02-21T00:13:56;100804.81;;;9.14;100.00
38718;BME280;24468;52.128;9.278;2023-02-21T00:16:40;100792.84;;;9.23;100.00
38718;BME280;24468;52.128;9.278;2023-02-21T00:19:24;100805.63;;;9.16;100.00
38718;BME280;24468;52.128;9.278;2023-02-21T00:22:08;100788.66;;;9.14;100.00
38718;BME280;24468;52.128;9.278;2023-02-21T00:24:52;100793.22;;;9.37;100.00
38718;BME280;24468;52.128;9.278;2023-02-21T00:27:36;100779.25;;;9.26;100.00
38718;BME280;24468;52.128;9.278;2023-02-21T00:30:20;100806.53;;;9.42;100.00
38718;BME280;24468;52.128;9.278;2023-02-21T00:33:04;100812.13;;;9.35;100.00
38718;BME280;24468;52.128;9.278;2023-02-21T00:35:48;100815.84;;;9.31;100.00
38718;BME280;24468;52.128;9.278;2023-02-21T00:38:32;100817.56;;;9.34;100.00
38718;BME280;24468;52.128;9.278;2023-02-21T00:41:16;100818.53;;;9.58;100.00
38718;BME280;24468;52.128;9.278;2023-02-21T00:44:00;100813.28;;;9.53;100.00
38718;BME280;24468;52.128;9.278;2023-02-21T00:46:44;100808.16;;;9.46;100.00
38718;BME280;24468;52.128;9.278;2023-02-21T00:49:28;100826.25;;;9.42;100.00
38718;BME280;24468;52.128;9.278;2023-02-21T00:52:13;100806.75;;;9.35;100.00
38718;BME280;24468;52.128;9.278;2023-02-21T00:54:57;100822.13;;;9.32;100.00
38718;BME280;24468;52.128;9.278;2023-02-21T00:57:41;100812.75;;;9.44;100.00
38718;BME280;24468;52.128;9.278;2023-02-21T01:00:25;100817.91;;;9.50;100.00
38718;BME280;24468;52.128;9.278;2023-02-21T01:03:10;100804.53;;;9.22;100.00
38718;BME280;24468;52.128;9.278;2023-02-21T01:05:54;100805.09;;;9.31;100.00
38718;BME280;24468;52.128;9.278;2023-02-21T01:08:45;100817.09;;;9.21;100.00
38718;BME280;24468;52.128;9.278;2023-02-21T01:11:30;100820.63;;;9.23;100.00
38718;BME280;24468;52.128;9.278;2023-02-21T01:14:15;100830.81;;;9.40;100.00
38718;BME280;24468;52.128;9.278;2023-02-21T01:17:00;100825.09;;;9.24;100.00
38718;BME280;24468;52.128;9.278;2023-02-21T01:19:45;100824.25;;;9.49;100.00
38718;BME280;24468;52.128;9.278;2023-02-21T01:22:30;100814.47;;;9.46;100.00
38718;BME280;24468;52.128;9.278;2023-02-21T01:25:14;100818.63;;;9.55;100.00
38718;BME280;24468;52.128;9.278;2023-02-21T01:27:59;100811.91;;;9.42;100.00
38718;BME280;24468;52.128;9.278;2023-02-21T01:30:44;100812.13;;;9.35;100.00
38718;BME280;24468;52.128;9.278;2023-02-21T01:33:28;100823.31;;;9.23;100.00
38718;BME280;24468;52.128;9.278;2023-02-21T01:36:12;100820.72;;;9.20;100.00
38718;BME280;24468;52.128;9.278;2023-02-21T01:38:56;100809.34;;;9.12;100.00
38718;BME280;24468;52.128;9.278;2023-02-21T01:41:40;100814.47;;;9.20;100.00
38718;BME280;24468;52.128;9.278;2023-02-21T01:44:45;100829.72;;;9.46;100.00
38718;BME280;24468;52.128;9.278;2023-02-21T01:47:31;100820.19;;;9.10;100.00
38718;BME280;24468;52.128;9.278;2023-02-21T01:50:26;100821.34;;;9.28;100.00
38718;BME280;24468;52.128;9.278;2023-02-21T01:53:18;100833.00;;;9.29;100.00
38718;BME280;24468;52.128;9.278;2023-02-21T01:56:03;100815.97;;;9.28;100.00
38718;BME280;24468;52.128;9.278;2023-02-21T01:58:51;100820.84;;;9.17;100.00
38718;BME280;24468;52.128;9.278;2023-02-21T02:01:57;100816.41;;;9.16;100.00
38718;BME280;24468;52.128;9.278;2023-02-21T02:04:43;100823.38;;;8.95;100.00
38718;BME280;24468;52.128;9.278;2023-02-21T02:07:28;100819.38;;;9.07;100.00
38718;BME280;24468;52.128;9.278;2023-02-21T02:10:13;100809.72;;;9.01;100.00
38718;BME280;24468;52.128;9.278;2023-02-21T02:13:40;100811.66;;;8.96;100.00
38718;BME280;24468;52.128;9.278;2023-02-21T02:16:37;100815.81;;;9.06;100.00
38718;BME280;24468;52.128;9.278;2023-02-21T02:22:50;100816.28;;;9.19;100.00
38718;BME280;24468;52.128;9.278;2023-02-21T02:29:03;100805.19;;;9.02;100.00
38718;BME280;24468;52.128;9.278;2023-02-21T02:35:02;100813.03;;;9.09;100.00
38718;BME280;24468;52.128;9.278;2023-02-21T02:37:54;100811.38;;;9.05;100.00
38718;BME280;24468;52.128;9.278;2023-02-21T02:43:28;100810.19;;;9.14;100.00
38718;BME280;24468;52.128;9.278;2023-02-21T02:46:05;100816.41;;;9.16;100.00
38718;BME280;24468;52.128;9.278;2023-02-21T02:48:47;100815.50;;;9.16;100.00
38718;BME280;24468;52.128;9.278;2023-02-21T02:51:15;100828.41;;;9.06;100.00
38718;BME280;24468;52.128;9.278;2023-02-21T02:53:41;100821.38;;;9.27;100.00
38718;BME280;24468;52.128;9.278;2023-02-21T02:56:11;100809.84;;;9.23;100.00
38718;BME280;24468;52.128;9.278;2023-02-21T02:58:46;100815.56;;;9.14;100.00
38718;BME280;24468;52.128;9.278;2023-02-21T03:07:33;100819.38;;;9.33;100.00
38718;BME280;24468;52.128;9.278;2023-02-21T03:10:23;100813.13;;;9.33;100.00
38718;BME280;24468;52.128;9.278;2023-02-21T03:18:48;100816.41;;;9.16;100.00
38718;BME280;24468;52.128;9.278;2023-02-21T03:21:26;100824.78;;;9.33;100.00
38718;BME280;24468;52.128;9.278;2023-02-21T03:23:58;100823.94;;;9.31;100.00
38718;BME280;24468;52.128;9.278;2023-02-21T03:26:28;100820.63;;;9.23;100.00
38718;BME280;24468;52.128;9.278;2023-02-21T03:28:56;100818.78;;;9.25;100.00
38718;BME280;24468;52.128;9.278;2023-02-21T03:31:27;100831.25;;;9.28;100.00
38718;BME280;24468;52.128;9.278;2023-02-21T03:33:55;100831.28;;;9.26;100.00
38718;BME280;24468;52.128;9.278;2023-02-21T03:36:21;100828.19;;;9.12;100.00
38718;BME280;24468;52.128;9.278;2023-02-21T03:38:47;100823.53;;;9.17;100.00
38718;BME280;24468;52.128;9.278;2023-02-21T03:41:14;100821.38;;;9.27;100.00
38718;BME280;24468;52.128;9.278;2023-02-21T03:43:40;100828.19;;;9.39;100.00
38718;BME280;24468;52.128;9.278;2023-02-21T03:46:05;100821.84;;;9.40;100.00
38718;BME280;24468;52.128;9.278;2023-02-21T03:48:31;100829.75;;;9.19;100.00
38718;BME280;24468;52.128;9.278;2023-02-21T03:50:56;100815.69;;;9.11;100.00
38718;BME280;24468;52.128;9.278;2023-02-21T03:53:22;100807.75;;;9.33;100.00
38718;BME280;24468;52.128;9.278;2023-02-21T03:55:47;100808.88;;;9.26;100.00
38718;BME280;24468;52.128;9.278;2023-02-21T03:58:13;100808.22;;;9.19;100.00
38718;BME280;24468;52.128;9.278;2023-02-21T04:00:39;100801.00;;;9.46;100.00
38718;BME280;24468;52.128;9.278;2023-02-21T04:03:04;100806.91;;;9.56;100.00
38718;BME280;24468;52.128;9.278;2023-02-21T04:05:30;100805.78;;;9.38;100.00
38718;BME280;24468;52.128;9.278;2023-02-21T04:07:55;100787.19;;;9.30;100.00
38718;BME280;24468;52.128;9.278;2023-02-21T04:10:21;100798.34;;;9.45;100.00
38718;BME280;24468;52.128;9.278;2023-02-21T04:12:46;100802.97;;;9.15;100.00
38718;BME280;24468;52.128;9.278;2023-02-21T04:15:12;100805.56;;;9.18;100.00
38718;BME280;24468;52.128;9.278;2023-02-21T04:17:37;100814.09;;;9.30;100.00
38718;BME280;24468;52.128;9.278;2023-02-21T04:20:03;100808.25;;;9.44;100.00
38718;BME280;24468;52.128;9.278;2023-02-21T04:22:29;100803.44;;;9.27;100.00
38718;BME280;24468;52.128;9.278;2023-02-21T04:24:55;100812.91;;;9.39;100.00
38718;BME280;24468;52.128;9.278;2023-02-21T04:27:21;100811.81;;;9.45;100.00
38718;BME280;24468;52.128;9.278;2023-02-21T04:29:47;100815.44;;;9.44;100.00
38718;BME280;24468;52.128;9.278;2023-02-21T04:32:12;100799.81;;;9.28;100.00
38718;BME280;24468;52.128;9.278;2023-02-21T04:34:38;100815.31;;;9.22;100.00
38718;BME280;24468;52.128;9.278;2023-02-21T04:37:04;100805.16;;;9.30;100.00
38718;BME280;24468;52.128;9.278;2023-02-21T04:39:29;100805.66;;;9.41;100.00
38718;BME280;24468;52.128;9.278;2023-02-21T04:41:55;100806.88;;;9.32;100.00
38718;BME280;24468;52.128;9.278;2023-02-21T04:44:21;100799.22;;;9.19;100.00
38718;BME280;24468;52.128;9.278;2023-02-21T04:46:46;100795.31;;;9.29;100.00
38718;BME280;24468;52.128;9.278;2023-02-21T04:49:12;100794.88;;;9.16;100.00
38718;BME280;24468;52.128;9.278;2023-02-21T04:51:38;100795.66;;;9.18;100.00
38718;BME280;24468;52.128;9.278;2023-02-21T04:54:03;100774.34;;;9.12;100.00
38718;BME280;24468;52.128;9.278;2023-02-21T04:56:29;100785.84;;;9.17;100.00
38718;BME280;24468;52.128;9.278;2023-02-21T04:58:55;100782.09;;;9.21;100.00
38718;BME280;24468;52.128;9.278;2023-02-21T05:01:21;100788.69;;;9.12;100.00
38718;BME280;24468;52.128;9.278;2023-02-21T05:03:47;100789.19;;;9.24;100.00
38718;BME280;24468;52.128;9.278;2023-02-21T05:06:21;100806.88;;;9.06;100.00
38718;BME280;24468;52.128;9.278;2023-02-21T05:08:47;100778.00;;;9.11;100.00
38718;BME280;24468;52.128;9.278;2023-02-21T05:11:14;100780.13;;;9.26;100.00
38718;BME280;24468;52.128;9.278;2023-02-21T05:13:39;100780.78;;;9.08;100.00
38718;BME280;24468;52.128;9.278;2023-02-21T05:16:05;100774.03;;;9.21;100.00
38718;BME280;24468;52.128;9.278;2023-02-21T05:18:31;100766.28;;;9.12;100.00
38718;BME280;24468;52.128;9.278;2023-02-21T05:20:59;100781.81;;;9.04;100.00
38718;BME280;24468;52.128;9.278;2023-02-21T05:23:24;100778.91;;;9.10;100.00
38718;BME280;24468;52.128;9.278;2023-02-21T05:26:08;100775.13;;;9.16;100.00
38718;BME280;24468;52.128;9.278;2023-02-21T05:28:35;100786.31;;;9.03;100.00
38718;BME280;24468;52.128;9.278;2023-02-21T05:31:01;100781.66;;;9.08;100.00
38718;BME280;24468;52.128;9.278;2023-02-21T05:33:27;100780.09;;;9.28;100.00
38718;BME280;24468;52.128;9.278;2023-02-21T05:35:53;100757.59;;;9.04;100.00
38718;BME280;24468;52.128;9.278;2023-02-21T05:38:20;100782.44;;;9.12;100.00
38718;BME280;24468;52.128;9.278;2023-02-21T05:40:46;100768.44;;;9.02;100.00
38718;BME280;24468;52.128;9.278;2023-02-21T05:43:11;100774.47;;;9.09;100.00
38718;BME280;24468;52.128;9.278;2023-02-21T05:45:37;100781.44;;;9.15;100.00
38718;BME280;24468;52.128;9.278;2023-02-21T05:48:03;100771.44;;;9.18;100.00
38718;BME280;24468;52.128;9.278;2023-02-21T05:50:29;100783.97;;;8.94;100.00
38718;BME280;24468;52.128;9.278;2023-02-21T05:52:56;100774.69;;;9.03;100.00
38718;BME280;24468;52.128;9.278;2023-02-21T05:55:22;100780.88;;;9.05;100.00
38718;BME280;24468;52.128;9.278;2023-02-21T05:57:47;100798.59;;;9.12;100.00
38718;BME280;24468;52.128;9.278;2023-02-21T06:00:20;100793.81;;;9.20;100.00
38718;BME280;24468;52.128;9.278;2023-02-21T06:02:46;100791.00;;;9.23;100.00
38718;BME280;24468;52.128;9.278;2023-02-21T06:05:12;100791.09;;;9.22;100.00
38718;BME280;24468;52.128;9.278;2023-02-21T06:07:37;100811.06;;;9.15;100.00
38718;BME280;24468;52.128;9.278;2023-02-21T06:10:04;100800.31;;;9.13;100.00
38718;BME280;24468;52.128;9.278;2023-02-21T06:12:30;100798.81;;;9.06;100.00
38718;BME280;24468;52.128;9.278;2023-02-21T06:14:55;100798.69;;;9.09;100.00
38718;BME280;24468;52.128;9.278;2023-02-21T06:17:21;100804.25;;;9.29;100.00
38718;BME280;24468;52.128;9.278;2023-02-21T06:19:47;100780.34;;;9.20;100.00
38718;BME280;24468;52.128;9.278;2023-02-21T06:22:12;100802.22;;;9.11;100.00
38718;BME280;24468;52.128;9.278;2023-02-21T06:24:38;100793.59;;;9.26;100.00
38718;BME280;24468;52.128;9.278;2023-02-21T06:27:04;100802.25;;;9.36;100.00
38718;BME280;24468;52.128;9.278;2023-02-21T06:29:29;100794.66;;;9.22;100.00
38718;BME280;24468;52.128;9.278;2023-02-21T06:31:59;100796.91;;;9.34;100.00
38718;BME280;24468;52.128;9.278;2023-02-21T06:34:26;100798.47;;;9.15;100.00
38718;BME280;24468;52.128;9.278;2023-02-21T06:36:54;100805.09;;;9.31;100.00
38718;BME280;24468;52.128;9.278;2023-02-21T06:39:21;100799.69;;;9.06;100.00
38718;BME280;24468;52.128;9.278;2023-02-21T06:41:49;100800.78;;;9.26;100.00
38718;BME280;24468;52.128;9.278;2023-02-21T06:44:15;100814.94;;;9.06;100.00
38718;BME280;24468;52.128;9.278;2023-02-21T06:46:41;100806.41;;;9.20;100.00
38718;BME280;24468;52.128;9.278;2023-02-21T06:49:07;100809.63;;;9.29;100.00
38718;BME280;24468;52.128;9.278;2023-02-21T06:51:35;100817.69;;;9.31;100.00
38718;BME280;24468;52.128;9.278;2023-02-21T06:54:00;100819.41;;;9.32;100.00
38718;BME280;24468;52.128;9.278;2023-02-21T06:56:26;100822.06;;;9.33;100.00
38718;BME280;24468;52.128;9.278;2023-02-21T06:58:52;100821.38;;;9.27;100.00
38718;BME280;24468;52.128;9.278;2023-02-21T07:01:18;100826.72;;;9.28;100.00
38718;BME280;24468;52.128;9.278;2023-02-21T07:03:44;100823.56;;;9.42;100.00
38718;BME280;24468;52.128;9.278;2023-02-21T07:06:10;100826.88;;;9.24;100.00
38718;BME280;24468;52.128;9.278;2023-02-21T07:08:36;100839.22;;;9.31;100.00
38718;BME280;24468;52.128;9.278;2023-02-21T07:11:01;100839.81;;;9.39;100.00
38718;BME280;24468;52.128;9.278;2023-02-21T07:13:27;100843.94;;;9.24;100.00
38718;BME280;24468;52.128;9.278;2023-02-21T07:15:53;100845.81;;;9.47;100.00
38718;BME280;24468;52.128;9.278;2023-02-21T07:18:18;100845.44;;;9.58;100.00
38718;BME280;24468;52.128;9.278;2023-02-21T07:20:44;100837.50;;;9.28;100.00
38718;BME280;24468;52.128;9.278;2023-02-21T07:23:09;100839.69;;;9.44;100.00
38718;BME280;24468;52.128;9.278;2023-02-21T07:25:35;100839.94;;;9.36;100.00
38718;BME280;24468;52.128;9.278;2023-02-21T07:28:01;100844.34;;;9.39;100.00
38718;BME280;24468;52.128;9.278;2023-02-21T07:30:28;100838.84;;;9.42;100.00
38718;BME280;24468;52.128;9.278;2023-02-21T07:32:54;100817.94;;;9.23;100.00
38718;BME280;24468;52.128;9.278;2023-02-21T07:35:19;100832.56;;;9.16;100.00
38718;BME280;24468;52.128;9.278;2023-02-21T07:37:45;100843.53;;;9.35;100.00
38718;BME280;24468;52.128;9.278;2023-02-21T07:40:10;100842.63;;;9.36;100.00
38718;BME280;24468;52.128;9.278;2023-02-21T07:42:36;100846.88;;;9.17;100.00
38718;BME280;24468;52.128;9.278;2023-02-21T07:45:02;100847.53;;;9.23;100.00
38718;BME280;24468;52.128;9.278;2023-02-21T07:47:27;100854.13;;;9.41;100.00
38718;BME280;24468;52.128;9.278;2023-02-21T07:49:54;100861.41;;;9.38;100.00
38718;BME280;24468;52.128;9.278;2023-02-21T07:52:21;100865.22;;;9.57;100.00
38718;BME280;24468;52.128;9.278;2023-02-21T07:54:47;100862.03;;;9.46;100.00
38718;BME280;24468;52.128;9.278;2023-02-21T07:57:13;100873.41;;;9.54;100.00
38718;BME280;24468;52.128;9.278;2023-02-21T07:59:39;100875.06;;;9.33;100.00
38718;BME280;24468;52.128;9.278;2023-02-21T08:02:05;100865.66;;;9.45;100.00
38718;BME280;24468;52.128;9.278;2023-02-21T08:04:30;100876.31;;;9.48;100.00
38718;BME280;24468;52.128;9.278;2023-02-21T08:07:00;100876.00;;;9.57;100.00
38718;BME280;24468;52.128;9.278;2023-02-21T08:09:26;100870.56;;;9.58;100.00
38718;BME280;24468;52.128;9.278;2023-02-21T08:11:52;100878.53;;;9.62;100.00
38718;BME280;24468;52.128;9.278;2023-02-21T08:14:17;100881.59;;;9.51;100.00
38718;BME280;24468;52.128;9.278;2023-02-21T08:16:43;100877.66;;;9.61;100.00
38718;BME280;24468;52.128;9.278;2023-02-21T08:19:08;100877.09;;;9.51;100.00
38718;BME280;24468;52.128;9.278;2023-02-21T08:21:34;100887.97;;;9.48;100.00
38718;BME280;24468;52.128;9.278;2023-02-21T08:24:00;100880.03;;;9.70;100.00
38718;BME280;24468;52.128;9.278;2023-02-21T08:26:25;100900.97;;;9.62;100.00
38718;BME280;24468;52.128;9.278;2023-02-21T08:28:51;100890.81;;;9.70;100.00
38718;BME280;24468;52.128;9.278;2023-02-21T08:31:16;100883.94;;;9.62;100.00
38718;BME280;24468;52.128;9.278;2023-02-21T08:33:44;100907.28;;;9.88;100.00
38718;BME280;24468;52.128;9.278;2023-02-21T08:36:10;100908.41;;;9.80;100.00
38718;BME280;24468;52.128;9.278;2023-02-21T08:38:36;100906.66;;;9.79;100.00
38718;BME280;24468;52.128;9.278;2023-02-21T08:41:02;100904.38;;;9.92;100.00
38718;BME280;24468;52.128;9.278;2023-02-21T08:43:31;100909.94;;;9.63;100.00
38718;BME280;24468;52.128;9.278;2023-02-21T08:45:56;100912.03;;;9.28;100.00
38718;BME280;24468;52.128;9.278;2023-02-21T08:48:22;100901.50;;;9.47;100.00
38718;BME280;24468;52.128;9.278;2023-02-21T08:50:47;100905.56;;;9.60;100.00
38718;BME280;24468;52.128;9.278;2023-02-21T08:53:13;100937.81;;;9.62;100.00
38718;BME280;24468;52.128;9.278;2023-02-21T08:55:39;100917.06;;;9.90;100.00
38718;BME280;24468;52.128;9.278;2023-02-21T08:58:05;100916.38;;;9.84;100.00
38718;BME280;24468;52.128;9.278;2023-02-21T09:00:30;100924.69;;;9.77;100.00
38718;BME280;24468;52.128;9.278;2023-02-21T09:02:57;100916.25;;;9.62;100.00
38718;BME280;24468;52.128;9.278;2023-02-21T09:05:29;100917.34;;;9.56;100.00
38718;BME280;24468;52.128;9.278;2023-02-21T09:07:58;100919.38;;;10.01;100.00
38718;BME280;24468;52.128;9.278;2023-02-21T09:10:30;100918.06;;;9.88;100.00
38718;BME280;24468;52.128;9.278;2023-02-21T09:12:58;100909.59;;;9.98;100.00
38718;BME280;24468;52.128;9.278;2023-02-21T09:15:24;100910.50;;;9.72;100.00
38718;BME280;24468;52.128;9.278;2023-02-21T09:17:49;100913.19;;;10.22;100.00
38718;BME280;24468;52.128;9.278;2023-02-21T09:20:20;100904.13;;;10.00;100.00
38718;BME280;24468;52.128;9.278;2023-02-21T09:22:46;100905.09;;;9.97;100.00
38718;BME280;24468;52.128;9.278;2023-02-21T09:25:14;100903.28;;;10.23;100.00
38718;BME280;24468;52.128;9.278;2023-02-21T09:27:40;100908.88;;;10.42;100.00
38718;BME280;24468;52.128;9.278;2023-02-21T09:30:14;100911.16;;;10.53;100.00
38718;BME280;24468;52.128;9.278;2023-02-21T09:32:40;100908.25;;;10.59;100.00
38718;BME280;24468;52.128;9.278;2023-02-21T09:35:08;100910.63;;;10.66;100.00
38718;BME280;24468;52.128;9.278;2023-02-21T09:37:37;100907.19;;;10.86;100.00
38718;BME280;24468;52.128;9.278;2023-02-21T09:40:10;100896.88;;;10.96;100.00
38718;BME280;24468;52.128;9.278;2023-02-21T09:42:36;100902.97;;;11.01;100.00
38718;BME280;24468;52.128;9.278;2023-02-21T09:45:02;100908.47;;;10.76;100.00
38718;BME280;24468;52.128;9.278;2023-02-21T09:47:34;100900.22;;;10.81;100.00
38718;BME280;24468;52.128;9.278;2023-02-21T09:50:07;100904.41;;;10.88;100.00
38718;BME280;24468;52.128;9.278;2023-02-21T09:52:37;100896.25;;;11.11;100.00
38718;BME280;24468;52.128;9.278;2023-02-21T09:57:54;100899.31;;;11.02;100.00
38718;BME280;24468;52.128;9.278;2023-02-21T10:00:23;100901.34;;;10.75;100.00
38718;BME280;24468;52.128;9.278;2023-02-21T10:08:39;100902.34;;;10.73;100.00
38718;BME280;24468;52.128;9.278;2023-02-21T10:11:25;100917.13;;;11.30;100.00
38718;BME280;24468;52.128;9.278;2023-02-21T10:13:55;100905.63;;;11.25;100.00
38718;BME280;24468;52.128;9.278;2023-02-21T10:16:38;100905.53;;;11.04;100.00
38718;BME280;24468;52.128;9.278;2023-02-21T10:19:29;100902.38;;;11.17;100.00
38718;BME280;24468;52.128;9.278;2023-02-21T10:21:57;100905.38;;;11.09;100.00
38718;BME280;24468;52.128;9.278;2023-02-21T10:24:25;100902.22;;;10.98;100.00
38718;BME280;24468;52.128;9.278;2023-02-21T10:27:29;100911.06;;;11.45;100.00
38718;BME280;24468;52.128;9.278;2023-02-21T10:30:00;100901.22;;;11.00;100.00
38718;BME280;24468;52.128;9.278;2023-02-21T10:32:28;100907.97;;;10.88;100.00
38718;BME280;24468;52.128;9.278;2023-02-21T10:34:54;100906.53;;;11.46;100.00
38718;BME280;24468;52.128;9.278;2023-02-21T10:40:27;100911.50;;;11.34;100.00
38718;BME280;24468;52.128;9.278;2023-02-21T10:43:08;100915.66;;;11.21;100.00
38718;BME280;24468;52.128;9.278;2023-02-21T10:46:00;100916.41;;;11.47;100.00
38718;BME280;24468;52.128;9.278;2023-02-21T10:48:37;100913.16;;;11.39;100.00
38718;BME280;24468;52.128;9.278;2023-02-21T10:51:11;100904.97;;;11.40;100.00
38718;BME280;24468;52.128;9.278;2023-02-21T10:53:39;100911.72;;;11.30;100.00
38718;BME280;24468;52.128;9.278;2023-02-21T10:59:00;100908.22;;;11.48;100.00
38718;BME280;24468;52.128;9.278;2023-02-21T11:01:33;100917.38;;;11.66;100.00
38718;BME280;24468;52.128;9.278;2023-02-21T11:04:09;100907.78;;;11.59;100.00
38718;BME280;24468;52.128;9.278;2023-02-21T11:07:09;100911.63;;;11.53;100.00
38718;BME280;24468;52.128;9.278;2023-02-21T11:09:44;100909.31;;;11.65;100.00
38718;BME280;24468;52.128;9.278;2023-02-21T11:12:23;100913.75;;;11.45;100.00
38718;BME280;24468;52.128;9.278;2023-02-21T11:17:31;100920.56;;;11.76;100.00
38718;BME280;24468;52.128;9.278;2023-02-21T11:20:14;100910.28;;;11.64;100.00
38718;BME280;24468;52.128;9.278;2023-02-21T11:22:44;100903.63;;;11.93;100.00
38718;BME280;24468;52.128;9.278;2023-02-21T11:25:30;100898.59;;;12.24;100.00
38718;BME280;24468;52.128;9.278;2023-02-21T11:30:37;100904.97;;;12.03;100.00
38718;BME280;24468;52.128;9.278;2023-02-21T11:33:04;100904.78;;;12.08;100.00
38718;BME280;24468;52.128;9.278;2023-02-21T11:35:47;100910.16;;;12.28;100.00
38718;BME280;24468;52.128;9.278;2023-02-21T11:39:03;100900.38;;;12.44;100.00
38718;BME280;24468;52.128;9.278;2023-02-21T11:41:53;100900.13;;;12.51;100.00
38718;BME280;24468;52.128;9.278;2023-02-21T11:44:35;100911.94;;;12.29;100.00
38718;BME280;24468;52.128;9.278;2023-02-21T11:47:32;100903.47;;;12.37;100.00
38718;BME280;24468;52.128;9.278;2023-02-21T11:50:26;100890.16;;;12.32;100.00
38718;BME280;24468;52.128;9.278;2023-02-21T11:53:12;100892.31;;;12.24;100.00
38718;BME280;24468;52.128;9.278;2023-02-21T11:55:41;100904.88;;;11.84;100.00
38718;BME280;24468;52.128;9.278;2023-02-21T12:01:12;100904.28;;;11.77;100.00
38718;BME280;24468;52.128;9.278;2023-02-21T12:07:03;100899.97;;;12.14;100.00
38718;BME280;24468;52.128;9.278;2023-02-21T12:09:58;100891.81;;;11.53;100.00
38718;BME280;24468;52.128;9.278;2023-02-21T12:16:10;100884.13;;;11.85;100.00
38718;BME280;24468;52.128;9.278;2023-02-21T12:25:16;100883.44;;;12.01;100.00
38718;BME280;24468;52.128;9.278;2023-02-21T12:33:42;100877.28;;;12.37;100.00
38718;BME280;24468;52.128;9.278;2023-02-21T12:36:42;100878.28;;;11.95;100.00
38718;BME280;24468;52.128;9.278;2023-02-21T12:47:27;100862.50;;;11.85;100.00
38718;BME280;24468;52.128;9.278;2023-02-21T12:50:13;100851.31;;;11.94;100.00
38718;BME280;24468;52.128;9.278;2023-02-21T12:52:59;100856.38;;;12.01;100.00
38718;BME280;24468;52.128;9.278;2023-02-21T12:55:34;100850.69;;;11.87;100.00
38718;BME280;24468;52.128;9.278;2023-02-21T12:58:40;100859.47;;;11.72;100.00
38718;BME280;24468;52.128;9.278;2023-02-21T13:01:27;100857.59;;;11.74;100.00
38718;BME280;24468;52.128;9.278;2023-02-21T13:04:43;100859.97;;;12.02;100.00
38718;BME280;24468;52.128;9.278;2023-02-21T13:07:36;100860.16;;;11.97;100.00
38718;BME280;24468;52.128;9.278;2023-02-21T13:10:23;100851.47;;;11.91;100.00
38718;BME280;24468;52.128;9.278;2023-02-21T13:13:09;100850.06;;;12.01;100.00
38718;BME280;24468;52.128;9.278;2023-02-21T13:15:36;100852.25;;;11.93;100.00
38718;BME280;24468;52.128;9.278;2023-02-21T13:20:41;100858.66;;;12.11;100.00
38718;BME280;24468;52.128;9.278;2023-02-21T13:29:18;100851.47;;;11.91;100.00
38718;BME280;24468;52.128;9.278;2023-02-21T13:31:44;100848.75;;;11.91;100.00
38718;BME280;24468;52.128;9.278;2023-02-21T13:34:12;100842.31;;;11.52;100.00
38718;BME280;24468;52.128;9.278;2023-02-21T13:36:46;100842.22;;;11.54;100.00
38718;BME280;24468;52.128;9.278;2023-02-21T13:39:17;100837.06;;;11.90;100.00
38718;BME280;24468;52.128;9.278;2023-02-21T13:41:52;100848.97;;;11.85;100.00
38718;BME280;24468;52.128;9.278;2023-02-21T13:44:33;100842.69;;;11.84;100.00
38718;BME280;24468;52.128;9.278;2023-02-21T13:47:19;100840.28;;;11.78;100.00
38718;BME280;24468;52.128;9.278;2023-02-21T13:49:48;100834.00;;;11.77;100.00
38718;BME280;24468;52.128;9.278;2023-02-21T14:08:43;100831.00;;;11.84;100.00
38718;BME280;24468;52.128;9.278;2023-02-21T14:11:36;100837.72;;;11.95;100.00
38718;BME280;24468;52.128;9.278;2023-02-21T14:14:20;100833.38;;;11.71;100.00
38718;BME280;24468;52.128;9.278;2023-02-21T14:17:02;100830.03;;;11.86;100.00
38718;BME280;24468;52.128;9.278;2023-02-21T14:19:42;100822.78;;;11.87;100.00
38718;BME280;24468;52.128;9.278;2023-02-21T14:22:25;100827.88;;;11.74;100.00
38718;BME280;24468;52.128;9.278;2023-02-21T14:25:14;100836.41;;;11.22;100.00
38718;BME280;24468;52.128;9.278;2023-02-21T14:27:41;100832.72;;;11.45;100.00
38718;BME280;24468;52.128;9.278;2023-02-21T14:32:47;100831.59;;;11.71;100.00
38718;BME280;24468;52.128;9.278;2023-02-21T14:35:35;100833.06;;;11.58;100.00
38718;BME280;24468;52.128;9.278;2023-02-21T14:38:05;100824.22;;;11.12;100.00
38718;BME280;24468;52.128;9.278;2023-02-21T14:43:47;100822.31;;;11.56;100.00
38718;BME280;24468;52.128;9.278;2023-02-21T14:46:53;100834.31;;;11.29;100.00
38718;BME280;24468;52.128;9.278;2023-02-21T14:56:09;100833.78;;;10.99;100.00
38718;BME280;24468;52.128;9.278;2023-02-21T15:10:27;100832.19;;;11.15;100.00
38718;BME280;24468;52.128;9.278;2023-02-21T15:13:02;100824.31;;;11.31;100.00
38718;BME280;24468;52.128;9.278;2023-02-21T15:15:37;100821.75;;;11.48;100.00
38718;BME280;24468;52.128;9.278;2023-02-21T15:18:10;100819.34;;;11.42;100.00
38718;BME280;24468;52.128;9.278;2023-02-21T15:20:39;100820.44;;;11.16;100.00
38718;BME280;24468;52.128;9.278;2023-02-21T15:25:34;100819.47;;;11.60;100.00
38718;BME280;24468;52.128;9.278;2023-02-21T15:28:03;100820.69;;;11.52;100.00